createdAt,value
2022-08-11T00:00:38.045Z,50.42
2022-08-11T00:05:56.138Z,51.34
2022-08-11T00:11:01.806Z,51.56
2022-08-11T00:16:05.227Z,51.50
2022-08-11T00:21:07.697Z,52.08
2022-08-11T00:26:09.989Z,52.26
2022-08-11T00:31:22.470Z,52.14
2022-08-11T00:36:29.037Z,53.14
2022-08-11T00:41:59.669Z,53.97
2022-08-11T00:47:13.027Z,52.78
2022-08-11T00:52:54.891Z,53.12
2022-08-11T00:58:11.651Z,53.04
2022-08-11T01:03:30.974Z,53.88
2022-08-11T01:09:09.602Z,53.69
2022-08-11T01:14:52.041Z,53.43
2022-08-11T01:20:47.541Z,54.14
2022-08-11T01:26:01.771Z,56.30
2022-08-11T01:31:23.742Z,56.28
2022-08-11T01:36:56.899Z,54.52
2022-08-11T01:42:20.248Z,55.23
2022-08-11T01:47:54.403Z,54.48
2022-08-11T01:53:30.147Z,54.86
2022-08-11T01:58:50.375Z,55.36
2022-08-11T02:04:08.651Z,56.98
2022-08-11T02:09:20.756Z,56.75
2022-08-11T02:14:34.603Z,56.48
2022-08-11T02:20:18.244Z,56.91
2022-08-11T02:25:43.114Z,57.05
2022-08-11T02:32:24.199Z,59.14
2022-08-11T02:37:32.652Z,56.62
2022-08-11T02:42:35.835Z,56.40
2022-08-11T02:48:34.094Z,56.65
2022-08-11T02:53:56.364Z,56.67
2022-08-11T02:59:26.015Z,58.02
2022-08-11T03:04:51.325Z,57.99
2022-08-11T03:10:11.410Z,57.30
2022-08-11T03:15:47.095Z,56.50
2022-08-11T03:21:52.443Z,57.08
2022-08-11T03:27:02.780Z,56.61
2022-08-11T03:32:07.235Z,59.03
2022-08-11T03:37:42.523Z,58.65
2022-08-11T03:43:02.880Z,59.66
2022-08-11T03:48:46.054Z,59.69
2022-08-11T03:54:25.174Z,61.57
2022-08-11T03:59:45.513Z,60.05
2022-08-11T04:05:07.427Z,58.99
2022-08-11T04:10:18.125Z,59.52
2022-08-11T04:16:12.542Z,59.81
2022-08-11T04:21:22.552Z,58.99
2022-08-11T04:27:02.054Z,59.44
2022-08-11T04:32:09.234Z,58.67
2022-08-11T04:37:34.638Z,59.03
2022-08-11T04:43:06.959Z,57.33
2022-08-11T04:48:39.486Z,57.51
2022-08-11T04:54:17.867Z,57.51
2022-08-11T05:00:31.639Z,57.30
2022-08-11T05:05:54.598Z,56.66
2022-08-11T05:11:26.836Z,55.80
2022-08-11T05:17:00.359Z,55.93
2022-08-11T05:22:21.887Z,55.04
2022-08-11T05:27:49.795Z,54.96
2022-08-11T05:33:31.844Z,53.59
2022-08-11T05:38:54.840Z,53.68
2022-08-11T05:44:20.812Z,52.81
2022-08-11T05:49:42.746Z,51.56
2022-08-11T05:55:06.299Z,51.14
2022-08-11T06:00:10.398Z,50.52
2022-08-11T06:05:14.137Z,49.50
2022-08-11T06:10:26.654Z,49.42
2022-08-11T06:15:30.223Z,49.60
2022-08-11T06:20:36.908Z,48.62
2022-08-11T06:25:38.674Z,49.05
2022-08-11T06:30:42.914Z,48.44
2022-08-11T06:36:04.772Z,48.62
2022-08-11T06:41:30.717Z,47.45
2022-08-11T06:46:38.133Z,46.94
2022-08-11T06:51:41.735Z,47.07
2022-08-11T07:02:46.664Z,46.16
2022-08-11T07:08:35.972Z,45.70
2022-08-11T07:13:57.497Z,45.78
2022-08-11T07:19:21.394Z,45.47
2022-08-11T07:25:01.279Z,45.58
2022-08-11T07:30:08.622Z,46.04
2022-08-11T07:35:13.694Z,45.08
2022-08-11T07:40:23.054Z,44.63
2022-08-11T07:45:43.659Z,44.56
2022-08-11T07:51:04.209Z,44.31
2022-08-11T07:56:06.334Z,43.92
2022-08-11T08:01:26.788Z,44.52
2022-08-11T08:06:47.879Z,43.71
2022-08-11T08:12:08.326Z,43.80
2022-08-11T08:17:28.793Z,42.72
2022-08-11T08:22:38.149Z,41.79
2022-08-11T08:27:43.611Z,41.68
2022-08-11T08:32:45.274Z,41.25
2022-08-11T08:37:47.808Z,40.41
2022-08-11T08:42:54.901Z,39.73
2022-08-11T08:48:02.331Z,39.59
2022-08-11T08:53:05.763Z,39.02
2022-08-11T08:58:07.802Z,37.96
2022-08-11T09:03:38.210Z,37.25
2022-08-11T09:08:32.881Z,37.10
2022-08-11T09:13:35.595Z,37.08
2022-08-11T09:18:37.924Z,36.63
2022-08-11T09:24:24.840Z,37.10
2022-08-11T09:29:20.870Z,37.30
2022-08-11T09:34:22.987Z,36.13
2022-08-11T09:39:43.661Z,36.82
2022-08-11T09:44:48.800Z,36.72
2022-08-11T09:49:53.275Z,36.62
2022-08-11T09:54:54.918Z,37.06
2022-08-11T10:00:12.423Z,37.63
2022-08-11T10:05:36.389Z,36.83
2022-08-11T10:10:39.339Z,36.79
2022-08-11T10:15:59.689Z,36.72
2022-08-11T10:21:34.834Z,35.44
2022-08-11T10:26:54.332Z,35.37
2022-08-11T10:32:22.970Z,36.38
2022-08-11T10:38:15.629Z,34.89
2022-08-11T10:43:03.174Z,34.52
2022-08-11T10:48:10.984Z,34.75
2022-08-11T10:53:36.529Z,34.63
2022-08-11T10:58:49.239Z,33.91
2022-08-11T11:04:01.551Z,33.46
2022-08-11T11:09:05.499Z,34.05
2022-08-11T11:14:27.325Z,33.62
2022-08-11T11:19:29.967Z,33.44
2022-08-11T11:24:45.694Z,32.20
2022-08-11T11:30:06.256Z,32.15
2022-08-11T11:35:26.661Z,31.96
2022-08-11T11:40:31.726Z,31.74
2022-08-11T11:45:33.735Z,31.13
2022-08-11T11:50:37.191Z,31.73
2022-08-11T11:55:39.109Z,31.10
2022-08-11T12:01:00.206Z,29.27
2022-08-11T12:06:02.917Z,29.57
2022-08-11T12:11:25.749Z,28.76
2022-08-11T12:16:33.723Z,28.04
2022-08-11T12:21:37.303Z,27.78
2022-08-11T12:27:16.112Z,28.88
2022-08-11T12:32:20.269Z,27.44
2022-08-11T12:37:30.175Z,28.06
2022-08-11T12:42:55.489Z,27.58
2022-08-11T12:49:01.173Z,28.23
2022-08-11T12:54:14.016Z,27.74
2022-08-11T12:59:34.485Z,28.16
2022-08-11T13:04:56.093Z,27.72
2022-08-11T13:09:57.940Z,28.30
2022-08-11T13:15:00.280Z,27.60
2022-08-11T13:20:03.093Z,27.49
2022-08-11T13:25:06.875Z,27.67
2022-08-11T13:30:27.627Z,27.81
2022-08-11T13:35:30.678Z,28.40
2022-08-11T13:40:54.644Z,28.75
2022-08-11T13:46:15.364Z,28.38
2022-08-11T13:51:35.428Z,28.82
2022-08-11T13:56:41.975Z,28.95
2022-08-11T14:02:19.887Z,29.27
2022-08-11T14:07:11.915Z,29.41
2022-08-11T14:12:35.331Z,29.88
2022-08-11T14:17:48.341Z,30.35
2022-08-11T14:22:52.063Z,31.06
2022-08-11T14:28:33.614Z,30.89
2022-08-11T14:33:20.276Z,30.73
2022-08-11T14:38:22.326Z,30.82
2022-08-11T14:44:14.276Z,30.69
2022-08-11T14:49:05.474Z,31.14
2022-08-11T14:54:26.859Z,30.98
2022-08-11T14:59:29.970Z,30.67
2022-08-11T15:04:35.769Z,30.63
2022-08-11T15:10:09.695Z,30.83
2022-08-11T15:15:26.617Z,30.85
2022-08-11T15:20:58.370Z,31.16
2022-08-11T15:26:46.130Z,30.75
2022-08-11T15:32:06.638Z,31.04
2022-08-11T15:37:29.557Z,30.61
2022-08-11T15:42:50.513Z,30.60
2022-08-11T15:47:58.461Z,31.49
2022-08-11T15:53:20.295Z,30.60
2022-08-11T15:58:42.952Z,30.00
2022-08-11T16:04:12.508Z,30.50
2022-08-11T16:09:18.364Z,30.74
2022-08-11T16:14:41.365Z,30.85
2022-08-11T16:19:44.403Z,30.99
2022-08-11T16:27:01.790Z,30.76
2022-08-11T16:30:09.087Z,30.82
2022-08-11T16:35:33.671Z,30.90
2022-08-11T16:40:35.691Z,31.50
2022-08-11T16:45:57.146Z,31.28
2022-08-11T16:51:00.920Z,31.26
2022-08-11T16:56:04.162Z,31.35
2022-08-11T17:01:05.886Z,31.72
2022-08-11T17:06:26.393Z,32.59
2022-08-11T17:11:48.100Z,32.81
2022-08-11T17:16:51.376Z,32.99
2022-08-11T17:22:12.216Z,32.97
2022-08-11T17:27:16.626Z,32.49
2022-08-11T17:32:57.009Z,32.59
2022-08-11T17:38:03.995Z,32.57
2022-08-11T17:43:27.485Z,32.50
2022-08-11T17:48:30.900Z,33.11
2022-08-11T17:54:10.157Z,33.31
2022-08-11T17:59:40.847Z,33.24
2022-08-11T18:04:52.217Z,33.60
2022-08-11T18:10:12.550Z,33.50
2022-08-11T18:15:32.789Z,33.76
2022-08-11T18:20:53.619Z,34.12
2022-08-11T18:26:18.856Z,34.32
2022-08-11T18:31:39.691Z,34.85
2022-08-11T18:37:08.344Z,34.81
2022-08-11T18:42:34.687Z,34.78
2022-08-11T18:47:56.510Z,35.20
2022-08-11T18:53:18.924Z,35.32
2022-08-11T18:58:46.286Z,35.86
2022-08-11T19:04:11.055Z,35.47
2022-08-11T19:09:36.207Z,35.56
2022-08-11T19:14:56.626Z,36.41
2022-08-11T19:20:17.777Z,36.63
2022-08-11T19:25:38.585Z,36.70
2022-08-11T19:30:59.617Z,36.60
2022-08-11T19:36:19.723Z,36.99
2022-08-11T19:41:56.675Z,37.07
2022-08-11T19:47:19.341Z,37.17
2022-08-11T19:52:40.133Z,37.55
2022-08-11T19:58:01.523Z,37.53
2022-08-11T20:03:24.030Z,37.73
2022-08-11T20:08:44.775Z,37.51
2022-08-11T20:14:05.275Z,37.86
2022-08-11T20:19:56.416Z,38.24
2022-08-11T20:25:07.027Z,38.38
2022-08-11T20:30:27.463Z,38.71
2022-08-11T20:35:47.974Z,39.37
2022-08-11T20:41:08.156Z,39.80
2022-08-11T20:46:29.232Z,39.83
2022-08-11T20:51:50.844Z,40.30
2022-08-11T20:57:15.285Z,40.18
2022-08-11T21:02:37.637Z,40.67
2022-08-11T21:08:00.365Z,41.37
2022-08-11T21:13:25.318Z,41.08
2022-08-11T21:18:48.439Z,41.26
2022-08-11T21:24:10.228Z,41.55
2022-08-11T21:29:31.702Z,41.78
2022-08-11T21:34:52.494Z,41.17
2022-08-11T21:40:17.121Z,41.62
2022-08-11T21:45:38.067Z,41.83
2022-08-11T21:50:58.041Z,41.81
2022-08-11T21:56:19.534Z,41.67
2022-08-11T22:01:40.577Z,42.09
2022-08-11T22:07:01.960Z,42.54
2022-08-11T22:12:33.496Z,42.84
2022-08-11T22:17:58.037Z,42.93
2022-08-11T22:23:19.644Z,43.51
2022-08-11T22:28:41.675Z,43.92
2022-08-11T22:34:03.296Z,44.09
2022-08-11T22:39:25.208Z,43.39
2022-08-11T22:44:45.487Z,44.01
2022-08-11T22:50:10.050Z,44.69
2022-08-11T22:55:31.123Z,45.47
2022-08-11T23:00:51.706Z,45.39
2022-08-11T23:06:11.984Z,45.90
2022-08-11T23:12:06.341Z,45.15
2022-08-11T23:17:14.550Z,45.67
2022-08-11T23:22:43.800Z,45.81
2022-08-11T23:28:10.102Z,45.62
2022-08-11T23:33:30.912Z,46.57
2022-08-11T23:38:51.529Z,47.40
2022-08-11T23:44:12.068Z,47.00
2022-08-11T23:49:32.589Z,47.38
2022-08-11T23:54:53.760Z,47.03
